createdAt,value
2023-01-21T00:30:23.181Z,0
2023-01-21T00:31:03.716Z,0
2023-01-21T00:31:44.301Z,0
2023-01-21T00:32:24.589Z,0
2023-01-21T00:33:05.108Z,0
2023-01-21T00:33:45.661Z,0
2023-01-21T00:34:26.113Z,0
2023-01-21T00:35:06.653Z,0
2023-01-21T00:35:47.082Z,0
2023-01-21T00:36:27.620Z,0
2023-01-21T00:37:08.148Z,0
2023-01-21T00:43:53.123Z,0
2023-01-21T00:44:33.617Z,0
2023-01-21T00:45:14.124Z,0
2023-01-21T00:45:54.698Z,0
2023-01-21T00:47:15.581Z,0
2023-01-21T00:47:56.046Z,0
2023-01-21T00:48:36.531Z,0
2023-01-21T00:49:17.054Z,0
2023-01-21T00:49:57.561Z,0
2023-01-21T00:50:38.065Z,0
2023-01-21T00:57:23.035Z,0
2023-01-21T00:58:03.544Z,0
2023-01-21T00:58:43.978Z,0
2023-01-21T00:59:24.493Z,0
2023-01-21T01:00:04.965Z,0
2023-01-21T01:00:45.401Z,0
2023-01-21T01:01:25.937Z,0
2023-01-21T01:02:06.414Z,0
2023-01-21T01:02:46.999Z,0
2023-01-21T01:03:27.428Z,0
2023-01-21T01:10:13.082Z,0
2023-01-21T01:10:53.566Z,0
2023-01-21T01:11:34.046Z,0
2023-01-21T01:12:14.528Z,0
2023-01-21T01:12:55.071Z,0
2023-01-21T01:13:35.534Z,0
2023-01-21T01:14:16.024Z,0
2023-01-21T01:14:56.532Z,0
2023-01-21T01:15:37.015Z,0
2023-01-21T01:16:17.588Z,0
2023-01-21T01:16:58.041Z,0
2023-01-21T01:23:43.044Z,0
2023-01-21T01:24:23.536Z,0
2023-01-21T01:25:04.051Z,0
2023-01-21T01:25:44.554Z,0
2023-01-21T01:26:25.077Z,0
2023-01-21T01:27:05.555Z,0
2023-01-21T01:27:45.992Z,0
2023-01-21T01:28:26.487Z,0
2023-01-21T01:29:06.952Z,0
2023-01-21T01:29:47.481Z,0
2023-01-21T01:30:27.962Z,0
2023-01-21T01:37:12.980Z,0
2023-01-21T01:37:53.456Z,0
2023-01-21T01:38:33.952Z,0
2023-01-21T01:39:14.441Z,0
2023-01-21T01:39:54.988Z,0
2023-01-21T01:40:35.440Z,0
2023-01-21T01:41:15.956Z,0
2023-01-21T01:41:56.410Z,0
2023-01-21T01:42:36.944Z,0
2023-01-21T01:43:17.388Z,0
2023-01-21T01:43:57.943Z,0
2023-01-21T01:51:23.217Z,0
2023-01-21T01:52:03.691Z,0
2023-01-21T01:52:44.170Z,0
2023-01-21T01:53:24.671Z,0
2023-01-21T01:54:05.226Z,0
2023-01-21T01:54:45.698Z,0
2023-01-21T01:55:26.266Z,0
2023-01-21T01:56:06.738Z,0
2023-01-21T01:56:47.193Z,0
2023-01-21T01:57:27.723Z,0
2023-01-21T02:03:33.033Z,0
2023-01-21T02:04:13.478Z,0
2023-01-21T02:04:54.003Z,0
2023-01-21T02:05:34.482Z,0
2023-01-21T02:06:14.962Z,0
2023-01-21T02:06:55.461Z,0
2023-01-21T02:07:35.926Z,0
2023-01-21T02:08:16.372Z,0
2023-01-21T02:08:56.876Z,0
2023-01-21T02:09:37.365Z,0
2023-01-21T02:10:18.208Z,0
2023-01-21T02:17:43.160Z,0
2023-01-21T02:18:23.635Z,0
2023-01-21T02:19:04.106Z,0
2023-01-21T02:19:44.648Z,0
2023-01-21T02:20:25.096Z,0
2023-01-21T02:21:05.602Z,0
2023-01-21T02:21:46.081Z,0
2023-01-21T02:22:26.599Z,0
2023-01-21T02:23:07.148Z,0
2023-01-21T02:23:47.602Z,0
2023-01-21T02:24:28.099Z,0
2023-01-21T02:31:53.446Z,0
2023-01-21T02:32:33.841Z,0
2023-01-21T02:33:14.393Z,0
2023-01-21T02:33:54.934Z,0
2023-01-21T02:34:35.364Z,0
2023-01-21T02:35:15.826Z,0
2023-01-21T02:35:56.359Z,0
2023-01-21T02:36:36.875Z,0
2023-01-21T02:37:17.384Z,0
2023-01-21T02:37:57.909Z,0
2023-01-21T02:45:23.184Z,0
2023-01-21T02:46:03.706Z,0
2023-01-21T02:46:44.328Z,0
2023-01-21T02:47:24.738Z,0
2023-01-21T02:48:05.193Z,0
2023-01-21T02:48:45.680Z,0
2023-01-21T02:49:26.170Z,0
2023-01-21T02:50:06.683Z,0
2023-01-21T02:50:47.146Z,0
2023-01-21T02:51:27.589Z,0
2023-01-21T02:52:08.052Z,0
2023-01-21T02:58:53.012Z,0
2023-01-21T02:59:33.439Z,0
2023-01-21T03:00:14.075Z,0
2023-01-21T03:00:54.504Z,0
2023-01-21T03:01:35.022Z,0
2023-01-21T03:02:15.459Z,0
2023-01-21T03:02:55.906Z,0
2023-01-21T03:03:36.429Z,0
2023-01-21T03:04:16.919Z,0
2023-01-21T03:04:57.395Z,0
2023-01-21T03:05:37.941Z,0
2023-01-21T03:12:22.950Z,0
2023-01-21T03:13:03.419Z,0
2023-01-21T03:13:43.952Z,0
2023-01-21T03:14:24.482Z,0
2023-01-21T03:15:04.995Z,0
2023-01-21T03:15:45.491Z,0
2023-01-21T03:16:26.050Z,0
2023-01-21T03:17:06.477Z,0
2023-01-21T03:17:46.975Z,0
2023-01-21T03:18:27.454Z,0
2023-01-21T03:19:08.006Z,0
2023-01-21T03:25:52.972Z,0
2023-01-21T03:26:33.417Z,0
2023-01-21T03:27:13.891Z,0
2023-01-21T03:27:54.413Z,0
2023-01-21T03:28:34.913Z,0
2023-01-21T03:29:15.410Z,0
2023-01-21T03:29:55.901Z,0
2023-01-21T03:30:36.443Z,0
2023-01-21T03:31:17.017Z,0
2023-01-21T03:31:57.422Z,0
2023-01-21T03:32:37.953Z,0
2023-01-21T03:40:03.429Z,0
2023-01-21T03:40:43.920Z,0
2023-01-21T03:41:24.425Z,0
2023-01-21T03:42:04.900Z,0
2023-01-21T03:42:45.400Z,0
2023-01-21T03:43:25.878Z,0
2023-01-21T03:44:06.389Z,0
2023-01-21T03:44:46.876Z,0
2023-01-21T03:45:27.390Z,0
2023-01-21T03:46:07.853Z,0
2023-01-21T03:53:33.302Z,0
2023-01-21T03:54:13.878Z,0
2023-01-21T03:54:54.417Z,0
2023-01-21T03:55:34.889Z,0
2023-01-21T03:56:15.458Z,0
2023-01-21T03:56:55.915Z,0
2023-01-21T03:57:36.432Z,0
2023-01-21T03:58:16.874Z,0
2023-01-21T03:59:37.863Z,0
2023-01-21T04:07:03.367Z,0
2023-01-21T04:07:43.917Z,0
2023-01-21T04:08:24.337Z,0
2023-01-21T04:09:04.808Z,0
2023-01-21T04:09:45.279Z,0
2023-01-21T04:10:25.753Z,0
2023-01-21T04:11:06.281Z,0
2023-01-21T04:11:46.747Z,0
2023-01-21T04:12:27.251Z,0
2023-01-21T04:13:07.752Z,0
2023-01-21T04:13:48.222Z,0
2023-01-21T04:20:33.206Z,0
2023-01-21T04:21:13.731Z,0
2023-01-21T04:21:54.328Z,0
2023-01-21T04:22:34.764Z,0
2023-01-21T04:23:15.296Z,0
2023-01-21T04:24:36.251Z,0
2023-01-21T04:25:16.753Z,0
2023-01-21T04:25:57.233Z,0
2023-01-21T04:26:37.711Z,0
2023-01-21T04:27:18.252Z,0
2023-01-21T04:34:03.128Z,0
2023-01-21T04:34:43.641Z,0
2023-01-21T04:35:24.175Z,0
2023-01-21T04:36:04.621Z,0
2023-01-21T04:36:45.127Z,0
2023-01-21T04:37:26.466Z,0
2023-01-21T04:38:06.990Z,0
2023-01-21T04:38:47.444Z,0
2023-01-21T04:39:27.924Z,0
2023-01-21T04:46:53.334Z,0
2023-01-21T04:47:33.794Z,0
2023-01-21T04:48:14.296Z,0
2023-01-21T04:48:54.780Z,0
2023-01-21T04:49:35.303Z,0
2023-01-21T04:50:16.037Z,0
2023-01-21T04:50:56.287Z,0
2023-01-21T04:51:36.732Z,0
2023-01-21T04:52:17.233Z,0
2023-01-21T04:52:57.703Z,0
2023-01-21T04:53:38.192Z,0
2023-01-21T05:00:23.042Z,0
2023-01-21T05:01:03.616Z,0
2023-01-21T05:01:44.071Z,0
2023-01-21T05:02:24.726Z,0
2023-01-21T05:03:05.156Z,0
2023-01-21T05:03:45.627Z,0
2023-01-21T05:04:26.050Z,0
2023-01-21T05:05:06.523Z,0
2023-01-21T05:05:47.016Z,0
2023-01-21T05:06:27.491Z,0
2023-01-21T05:07:07.967Z,0
2023-01-21T05:13:52.952Z,0
2023-01-21T05:14:33.468Z,0
2023-01-21T05:15:13.964Z,0
2023-01-21T05:15:54.506Z,0
2023-01-21T05:16:35.023Z,0
2023-01-21T05:17:15.466Z,0
2023-01-21T05:17:55.949Z,0
2023-01-21T05:18:36.493Z,0
2023-01-21T05:19:16.944Z,0
2023-01-21T05:19:57.485Z,0
2023-01-21T05:20:37.949Z,0
2023-01-21T05:28:03.270Z,0
2023-01-21T05:28:43.738Z,0
2023-01-21T05:29:24.259Z,0
2023-01-21T05:30:04.812Z,0
2023-01-21T05:30:45.310Z,0
2023-01-21T05:31:25.830Z,0
2023-01-21T05:32:06.256Z,0
2023-01-21T05:32:46.780Z,0
2023-01-21T05:33:27.250Z,0
2023-01-21T05:34:48.197Z,0
2023-01-21T05:40:53.188Z,0
2023-01-21T05:41:33.638Z,0
2023-01-21T05:42:14.100Z,0
2023-01-21T05:42:54.602Z,0
2023-01-21T05:43:35.112Z,0
2023-01-21T05:44:17.523Z,0
2023-01-21T05:44:56.099Z,0
2023-01-21T05:45:36.587Z,0
2023-01-21T05:47:50.215Z,0
2023-01-21T05:48:30.756Z,0
2023-01-21T05:49:11.215Z,0
2023-01-21T05:49:51.673Z,0
2023-01-21T05:50:32.182Z,0
2023-01-21T05:51:12.815Z,0
2023-01-21T05:51:53.145Z,0
2023-01-21T05:52:33.649Z,0
2023-01-21T06:32:05.768Z,0
2023-01-21T06:32:46.101Z,0
2023-01-21T06:33:26.585Z,0
2023-01-21T06:34:07.064Z,0
2023-01-21T06:34:47.587Z,0
2023-01-21T06:35:28.052Z,0
2023-01-21T06:36:08.515Z,0
2023-01-21T06:36:49.003Z,0
2023-01-21T06:37:29.596Z,0
2023-01-21T06:38:50.522Z,0
2023-01-21T06:45:35.471Z,0
2023-01-21T06:46:15.988Z,0
2023-01-21T06:47:03.717Z,0
2023-01-21T06:47:37.070Z,0
2023-01-21T06:48:17.544Z,0
2023-01-21T06:48:58.036Z,0
2023-01-21T06:49:38.530Z,0
2023-01-21T06:50:19.256Z,0
2023-01-21T06:50:59.566Z,0
2023-01-21T06:51:40.078Z,4
2023-01-21T06:52:20.610Z,4
2023-01-21T06:59:05.591Z,4
2023-01-21T06:59:46.101Z,4
2023-01-21T07:00:26.589Z,8
2023-01-21T07:01:07.079Z,8
2023-01-21T07:01:47.648Z,4
2023-01-21T07:02:28.116Z,4
2023-01-21T07:03:08.563Z,4
2023-01-21T07:03:49.033Z,12
2023-01-21T07:04:29.493Z,12
2023-01-21T07:05:09.972Z,12
2023-01-21T07:13:15.852Z,28
2023-01-21T07:13:56.346Z,32
2023-01-21T07:14:36.837Z,36
2023-01-21T07:15:17.587Z,36
2023-01-21T07:15:57.853Z,40
2023-01-21T07:16:38.324Z,40
2023-01-21T07:17:18.811Z,40
2023-01-21T07:17:59.264Z,44
2023-01-21T07:18:39.799Z,48
2023-01-21T07:19:20.231Z,48
2023-01-21T07:20:00.709Z,52
2023-01-21T07:26:45.608Z,96
2023-01-21T07:27:26.077Z,100
2023-01-21T07:28:06.583Z,100
2023-01-21T07:28:47.083Z,104
2023-01-21T07:29:27.563Z,108
2023-01-21T07:30:08.054Z,112
2023-01-21T07:30:48.609Z,116
2023-01-21T07:31:29.173Z,124
2023-01-21T07:32:09.548Z,128
2023-01-21T07:32:50.059Z,132
2023-01-21T07:39:35.606Z,204
2023-01-21T07:40:16.130Z,212
2023-01-21T07:40:56.737Z,224
2023-01-21T07:41:37.207Z,232
2023-01-21T07:42:17.740Z,240
2023-01-21T07:42:58.200Z,256
2023-01-21T07:43:38.675Z,268
2023-01-21T07:44:19.164Z,272
2023-01-21T07:44:59.654Z,284
2023-01-21T07:45:41.098Z,292
2023-01-21T07:53:05.563Z,412
2023-01-21T07:53:46.088Z,424
2023-01-21T07:54:26.610Z,436
2023-01-21T07:55:08.025Z,448
2023-01-21T07:55:47.630Z,460
2023-01-21T07:56:28.042Z,468
2023-01-21T07:57:08.517Z,476
2023-01-21T07:57:48.990Z,488
2023-01-21T07:58:29.469Z,500
2023-01-21T07:59:09.954Z,496
2023-01-21T07:59:50.453Z,508
2023-01-21T08:07:15.850Z,608
2023-01-21T08:07:56.383Z,620
2023-01-21T08:08:36.853Z,620
2023-01-21T08:09:17.322Z,628
2023-01-21T08:09:57.817Z,640
2023-01-21T08:10:38.319Z,648
2023-01-21T08:11:59.301Z,676
2023-01-21T08:12:39.778Z,692
2023-01-21T08:13:20.251Z,680
2023-01-21T08:20:45.750Z,840
2023-01-21T08:21:26.265Z,860
2023-01-21T08:22:06.745Z,864
2023-01-21T08:22:47.211Z,888
2023-01-21T08:23:27.707Z,920
2023-01-21T08:24:08.186Z,936
2023-01-21T08:24:48.719Z,956
2023-01-21T08:25:29.267Z,968
2023-01-21T08:26:09.749Z,952
2023-01-21T08:26:50.258Z,984
2023-01-21T08:34:15.709Z,1020
2023-01-21T08:34:56.263Z,1080
2023-01-21T08:35:36.716Z,1088
2023-01-21T08:36:17.282Z,1040
2023-01-21T08:36:57.711Z,1016
2023-01-21T08:37:38.204Z,1064
2023-01-21T08:38:18.710Z,1108
2023-01-21T08:39:39.703Z,1040
2023-01-21T08:40:20.201Z,1092
2023-01-21T08:41:00.677Z,1160
2023-01-21T08:47:45.774Z,1132
2023-01-21T08:48:26.311Z,1128
2023-01-21T08:49:06.678Z,1184
2023-01-21T08:49:47.179Z,1204
2023-01-21T08:50:27.668Z,1176
2023-01-21T08:51:08.219Z,1188
2023-01-21T08:51:48.816Z,1160
2023-01-21T08:52:29.234Z,1160
2023-01-21T08:53:09.690Z,1184
2023-01-21T08:53:50.184Z,1244
2023-01-21T08:54:30.678Z,1312
2023-01-21T09:01:15.677Z,1400
2023-01-21T09:01:56.114Z,1424
2023-01-21T09:02:36.566Z,1440
2023-01-21T09:03:17.124Z,1420
2023-01-21T09:03:57.548Z,1428
2023-01-21T09:04:38.065Z,1488
2023-01-21T09:05:18.812Z,1468
2023-01-21T09:05:59.012Z,1488
2023-01-21T09:06:39.473Z,1504
2023-01-21T09:07:19.974Z,1516
2023-01-21T09:08:00.455Z,1512
2023-01-21T09:14:45.699Z,1588
2023-01-21T09:15:26.185Z,1592
2023-01-21T09:16:06.749Z,1588
2023-01-21T09:16:47.262Z,1596
2023-01-21T09:17:27.725Z,1604
2023-01-21T09:19:40.399Z,1624
2023-01-21T09:20:20.843Z,1624
2023-01-21T09:21:01.501Z,1632
2023-01-21T09:21:41.975Z,1652
2023-01-21T09:22:22.454Z,1656
2023-01-21T09:23:02.943Z,1664
2023-01-21T09:25:15.921Z,1696
2023-01-21T09:25:56.155Z,1704
2023-01-21T09:26:36.652Z,1708
2023-01-21T09:27:17.216Z,1692
2023-01-21T09:27:57.638Z,1704
2023-01-21T09:28:38.225Z,1704
2023-01-21T09:29:18.789Z,1700
2023-01-21T09:32:52.846Z,1724
2023-01-21T09:33:33.424Z,1732
2023-01-21T09:34:13.902Z,1740
2023-01-21T09:34:54.386Z,1736
2023-01-21T09:35:34.871Z,1768
2023-01-21T09:36:15.391Z,1792
2023-01-21T09:36:56.010Z,1808
2023-01-21T09:37:36.485Z,1824
2023-01-21T09:38:17.009Z,1844
2023-01-21T09:38:57.600Z,1840
2023-01-21T09:45:42.660Z,2216
2023-01-21T09:46:23.063Z,1928
2023-01-21T09:47:03.584Z,1760
2023-01-21T09:47:44.088Z,1704
2023-01-21T09:48:24.620Z,1760
2023-01-21T09:49:05.087Z,1792
2023-01-21T09:49:45.591Z,2036
2023-01-21T09:50:26.114Z,1776
2023-01-21T09:51:06.627Z,1752
2023-01-21T09:51:47.098Z,1692
2023-01-21T09:52:27.599Z,1708
2023-01-21T09:59:12.671Z,1084
2023-01-21T09:59:53.233Z,1056
2023-01-21T10:00:33.689Z,1052
2023-01-21T10:01:14.163Z,1012
2023-01-21T10:01:54.676Z,1028
2023-01-21T10:02:35.184Z,1040
2023-01-21T10:03:15.675Z,1016
2023-01-21T10:03:56.196Z,932
2023-01-21T10:04:36.800Z,900
2023-01-21T10:05:17.537Z,888
2023-01-21T10:05:57.726Z,884
2023-01-21T10:15:01.111Z,932
2023-01-21T10:15:41.623Z,968
2023-01-21T10:16:22.089Z,972
2023-01-21T10:17:02.525Z,956
2023-01-21T10:17:43.049Z,1008
2023-01-21T10:18:23.537Z,992
2023-01-21T10:19:04.090Z,1000
2023-01-21T10:19:44.480Z,960
2023-01-21T10:20:25.008Z,920
2023-01-21T10:21:05.548Z,912
2023-01-21T10:21:46.109Z,924
2023-01-21T10:27:10.905Z,1004
2023-01-21T10:27:51.448Z,1040
2023-01-21T10:28:31.939Z,1048
2023-01-21T10:29:12.431Z,1036
2023-01-21T10:29:52.931Z,1016
2023-01-21T10:30:33.540Z,1040
2023-01-21T10:31:54.488Z,1044
2023-01-21T10:32:34.896Z,1076
2023-01-21T10:33:15.424Z,1112
2023-01-21T10:33:55.999Z,1116
2023-01-21T10:40:41.022Z,1144
2023-01-21T10:41:21.480Z,1120
2023-01-21T10:42:01.999Z,1112
2023-01-21T10:42:42.512Z,1104
2023-01-21T10:43:22.984Z,1112
2023-01-21T10:44:03.477Z,1164
2023-01-21T10:44:43.985Z,1204
2023-01-21T10:45:24.554Z,1232
2023-01-21T10:46:05.153Z,1220
2023-01-21T10:46:45.618Z,1176
2023-01-21T10:47:26.109Z,1164
2023-01-21T10:51:06.804Z,1160
2023-01-21T10:51:46.599Z,1136
2023-01-21T10:52:27.120Z,1124
2023-01-21T10:53:07.642Z,1108
2023-01-21T10:53:48.135Z,1116
2023-01-21T10:54:28.696Z,1120
2023-01-21T10:55:09.210Z,1136
2023-01-21T10:55:49.671Z,1136
2023-01-21T10:56:30.817Z,1116
2023-01-21T11:03:56.009Z,1216
2023-01-21T11:04:36.540Z,1216
2023-01-21T11:05:17.261Z,1128
2023-01-21T11:05:58.086Z,1116
2023-01-21T11:06:38.583Z,1176
2023-01-21T11:07:19.075Z,1196
2023-01-21T11:07:59.693Z,1176
2023-01-21T11:08:40.284Z,1192
2023-01-21T11:09:20.714Z,1172
2023-01-21T11:15:25.693Z,1056
2023-01-21T11:16:06.281Z,1052
2023-01-21T11:16:46.700Z,1056
2023-01-21T11:17:27.218Z,1092
2023-01-21T11:18:07.670Z,1104
2023-01-21T11:18:48.180Z,1132
2023-01-21T11:19:28.649Z,1076
2023-01-21T11:20:09.141Z,1040
2023-01-21T11:20:49.641Z,1012
2023-01-21T11:21:30.135Z,1004
2023-01-21T11:22:10.618Z,1000
2023-01-21T11:28:55.753Z,944
2023-01-21T11:29:36.465Z,924
2023-01-21T11:30:37.234Z,884
2023-01-21T11:30:57.880Z,840
2023-01-21T11:31:38.067Z,860
2023-01-21T11:32:18.501Z,848
2023-01-21T11:32:59.158Z,900
2023-01-21T11:33:39.651Z,952
2023-01-21T11:34:20.169Z,944
2023-01-21T11:35:03.323Z,924
2023-01-21T11:38:25.867Z,936
2023-01-21T11:39:06.323Z,928
2023-01-21T11:39:46.910Z,908
2023-01-21T11:40:27.407Z,896
2023-01-21T11:41:10.755Z,896
2023-01-21T11:41:48.488Z,912
2023-01-21T11:42:29.174Z,912
2023-01-21T11:43:09.672Z,888
2023-01-21T11:43:50.159Z,864
2023-01-21T11:44:30.687Z,840
2023-01-21T11:51:15.867Z,824
2023-01-21T11:51:56.275Z,828
2023-01-21T11:52:36.776Z,820
2023-01-21T11:53:17.307Z,828
2023-01-21T12:32:46.559Z,968
2023-01-21T12:33:27.401Z,956
2023-01-21T12:34:08.763Z,956
2023-01-21T12:34:51.432Z,960
2023-01-21T12:36:13.986Z,968
2023-01-21T12:36:55.109Z,976
2023-01-21T12:37:36.054Z,984
2023-01-21T12:38:17.265Z,1000
2023-01-21T12:38:58.220Z,1020
2023-01-21T12:41:44.348Z,992
2023-01-21T12:42:25.534Z,1000
2023-01-21T12:43:06.549Z,992
2023-01-21T12:43:47.514Z,988
2023-01-21T12:44:28.711Z,988
2023-01-21T12:45:09.698Z,980
2023-01-21T12:47:55.222Z,988
2023-01-21T12:48:36.695Z,976
2023-01-21T12:49:17.754Z,952
2023-01-21T12:49:58.672Z,916
2023-01-21T12:51:25.784Z,860
2023-01-21T12:52:08.876Z,828
2023-01-21T12:54:54.610Z,812
2023-01-21T12:55:36.691Z,824
2023-01-21T12:56:16.677Z,824
2023-01-21T12:56:57.675Z,832
2023-01-21T12:57:38.652Z,824
2023-01-21T13:01:04.275Z,764
2023-01-21T13:01:45.195Z,748
2023-01-21T13:02:26.989Z,732
2023-01-21T13:03:08.178Z,732
2023-01-21T13:03:50.663Z,732
2023-01-21T13:05:54.207Z,752
2023-01-21T13:06:52.223Z,752
2023-01-21T13:07:16.347Z,736
2023-01-21T13:07:58.913Z,724
2023-01-21T13:10:46.445Z,624
2023-01-21T13:11:27.827Z,584
2023-01-21T13:12:08.915Z,568
2023-01-21T13:14:54.673Z,640
2023-01-21T13:15:37.902Z,632
2023-01-21T13:16:18.370Z,608
2023-01-21T13:20:38.803Z,624
2023-01-21T13:21:19.306Z,628
2023-01-21T13:21:59.817Z,628
2023-01-21T13:22:40.304Z,628
2023-01-21T13:23:20.775Z,632
2023-01-21T13:24:01.273Z,644
2023-01-21T13:30:06.966Z,644
2023-01-21T13:30:47.622Z,644
2023-01-21T13:31:28.300Z,632
2023-01-21T13:32:08.672Z,632
2023-01-21T13:32:49.168Z,648
2023-01-21T13:33:29.697Z,656
2023-01-21T13:34:10.235Z,660
2023-01-21T13:34:50.749Z,672
2023-01-21T13:35:31.275Z,692
2023-01-21T13:36:11.755Z,708
2023-01-21T13:42:56.700Z,756
2023-01-21T13:43:37.523Z,768
2023-01-21T13:44:18.898Z,768
2023-01-21T13:44:59.461Z,756
2023-01-21T13:45:40.023Z,736
2023-01-21T13:46:20.479Z,724
2023-01-21T13:47:01.016Z,732
2023-01-21T13:47:41.485Z,732
2023-01-21T13:55:06.986Z,612
2023-01-21T13:55:47.492Z,592
2023-01-21T13:56:27.959Z,580
2023-01-21T13:57:08.510Z,572
2023-01-21T13:57:48.927Z,572
2023-01-21T13:58:29.485Z,564
2023-01-21T13:59:09.931Z,568
2023-01-21T13:59:50.457Z,580
2023-01-21T14:00:30.902Z,576
2023-01-21T14:01:11.503Z,568
2023-01-21T14:07:56.505Z,452
2023-01-21T14:08:38.858Z,440
2023-01-21T14:11:37.529Z,428
2023-01-21T14:12:18.007Z,412
2023-01-21T14:12:58.480Z,408
2023-01-21T14:13:38.958Z,404
2023-01-21T14:14:19.461Z,396
2023-01-21T14:14:59.966Z,388
2023-01-21T14:15:40.482Z,384
2023-01-21T14:16:20.998Z,388
2023-01-21T14:17:01.471Z,396
2023-01-21T14:17:41.975Z,396
2023-01-21T14:18:22.470Z,396
2023-01-21T14:25:07.382Z,392
2023-01-21T14:25:47.889Z,380
2023-01-21T14:26:28.358Z,376
2023-01-21T14:27:08.851Z,356
2023-01-21T14:28:29.847Z,344
2023-01-21T14:29:10.323Z,340
2023-01-21T14:29:50.895Z,336
2023-01-21T14:30:31.471Z,328
2023-01-21T14:31:11.977Z,312
2023-01-21T14:31:52.427Z,292
2023-01-21T14:37:57.481Z,216
2023-01-21T14:38:37.964Z,224
2023-01-21T14:39:18.473Z,236
2023-01-21T14:39:59.027Z,244
2023-01-21T14:40:39.499Z,252
2023-01-21T14:41:20.016Z,260
2023-01-21T14:42:00.492Z,264
2023-01-21T14:42:41.617Z,268
2023-01-21T14:43:21.586Z,276
2023-01-21T14:44:02.105Z,280
2023-01-21T14:50:47.291Z,276
2023-01-21T14:51:27.715Z,272
2023-01-21T14:52:08.184Z,280
2023-01-21T14:52:48.690Z,288
2023-01-21T14:53:29.195Z,288
2023-01-21T14:54:09.709Z,288
2023-01-21T14:54:50.104Z,292
2023-01-21T14:55:30.623Z,280
2023-01-21T14:56:11.118Z,284
2023-01-21T14:56:51.799Z,280
2023-01-21T14:57:32.131Z,272
2023-01-21T15:04:17.124Z,200
2023-01-21T15:04:57.601Z,196
2023-01-21T15:05:38.111Z,196
2023-01-21T15:06:18.587Z,192
2023-01-21T15:06:59.112Z,184
2023-01-21T15:07:39.608Z,180
2023-01-21T15:08:20.113Z,176
2023-01-21T15:09:00.620Z,180
2023-01-21T15:09:41.106Z,172
2023-01-21T15:10:21.636Z,172
2023-01-21T15:11:02.112Z,168
2023-01-21T15:17:47.088Z,156
2023-01-21T15:18:27.603Z,152
2023-01-21T15:19:08.139Z,144
2023-01-21T15:19:48.578Z,136
2023-01-21T15:20:29.110Z,132
2023-01-21T15:21:09.588Z,132
2023-01-21T15:21:50.068Z,128
2023-01-21T15:22:31.065Z,128
2023-01-21T15:23:11.622Z,128
2023-01-21T15:23:52.058Z,128
2023-01-21T15:30:38.338Z,88
2023-01-21T15:31:17.693Z,84
2023-01-21T15:31:58.246Z,88
2023-01-21T15:32:38.711Z,84
2023-01-21T15:33:19.181Z,80
2023-01-21T15:33:59.686Z,80
2023-01-21T15:34:40.191Z,76
2023-01-21T15:35:20.702Z,76
2023-01-21T15:36:01.190Z,72
2023-01-21T15:36:41.734Z,72
2023-01-21T15:37:22.204Z,72
2023-01-21T15:44:07.319Z,56
2023-01-21T15:44:47.837Z,52
2023-01-21T15:45:28.340Z,48
2023-01-21T15:46:08.958Z,48
2023-01-21T15:46:49.376Z,48
2023-01-21T15:47:29.917Z,48
2023-01-21T15:48:10.360Z,48
2023-01-21T15:48:50.894Z,48
2023-01-21T15:49:31.440Z,44
2023-01-21T15:50:52.582Z,44
2023-01-21T15:56:53.324Z,32
2023-01-21T15:57:33.806Z,28
2023-01-21T15:58:14.366Z,28
2023-01-21T15:58:54.820Z,28
2023-01-21T15:59:35.298Z,28
2023-01-21T16:00:15.806Z,28
2023-01-21T16:01:36.807Z,24
2023-01-21T16:02:17.312Z,24
2023-01-21T16:02:57.870Z,24
2023-01-21T16:10:23.232Z,24
2023-01-21T16:11:03.725Z,20
2023-01-21T16:11:44.228Z,20
2023-01-21T16:12:24.769Z,20
2023-01-21T16:13:05.233Z,20
2023-01-21T16:13:45.729Z,16
2023-01-21T16:14:26.235Z,16
2023-01-21T16:15:06.725Z,12
2023-01-21T16:15:47.281Z,16
2023-01-21T16:17:08.181Z,8
2023-01-21T16:23:13.357Z,4
2023-01-21T16:23:53.209Z,4
2023-01-21T16:24:33.724Z,4
2023-01-21T16:25:14.202Z,4
2023-01-21T16:25:54.700Z,4
2023-01-21T16:27:15.661Z,4
2023-01-21T16:27:56.236Z,0
2023-01-21T16:28:36.673Z,4
2023-01-21T16:29:17.164Z,4
2023-01-21T16:29:57.674Z,0
2023-01-21T16:30:38.204Z,0
2023-01-21T16:37:23.174Z,0
2023-01-21T16:38:03.647Z,0
2023-01-21T16:38:44.124Z,0
2023-01-21T16:40:05.170Z,0
2023-01-21T16:40:45.654Z,0
2023-01-21T16:41:26.188Z,0
2023-01-21T16:42:06.691Z,0
2023-01-21T16:42:47.170Z,0
2023-01-21T16:43:27.702Z,0
2023-01-21T16:44:08.154Z,0
2023-01-21T16:50:53.160Z,0
2023-01-21T16:51:33.653Z,0
2023-01-21T16:52:14.150Z,0
2023-01-21T16:52:54.690Z,0
2023-01-21T16:53:35.207Z,0
2023-01-21T16:54:15.745Z,0
2023-01-21T16:54:56.241Z,0
2023-01-21T16:55:36.746Z,0
2023-01-21T16:56:17.258Z,0
2023-01-21T16:56:57.752Z,0
2023-01-21T17:04:23.255Z,0
2023-01-21T17:05:03.744Z,0
2023-01-21T17:05:44.238Z,0
2023-01-21T17:06:24.769Z,0
2023-01-21T17:07:05.908Z,0
2023-01-21T17:07:45.736Z,0
2023-01-21T17:08:26.257Z,0
2023-01-21T17:09:06.772Z,0
2023-01-21T17:09:47.288Z,0
2023-01-21T17:10:27.831Z,0
2023-01-21T17:11:08.309Z,0
2023-01-21T17:20:11.292Z,0
2023-01-21T17:20:51.806Z,0
2023-01-21T17:21:32.274Z,0
2023-01-21T17:22:12.769Z,0
2023-01-21T17:22:53.320Z,0
2023-01-21T17:23:33.795Z,0
2023-01-21T17:24:14.297Z,0
2023-01-21T17:24:54.793Z,0
2023-01-21T17:25:35.351Z,0
2023-01-21T17:26:15.826Z,0
2023-01-21T17:26:56.308Z,0
2023-01-21T17:33:41.299Z,0
2023-01-21T17:34:21.786Z,0
2023-01-21T17:36:34.701Z,0
2023-01-21T17:37:15.067Z,0
2023-01-21T17:37:55.532Z,0
2023-01-21T17:38:36.056Z,0
2023-01-21T17:39:16.483Z,0
2023-01-21T17:39:57.015Z,0
2023-01-21T17:40:37.513Z,0
2023-01-21T17:41:18.015Z,0
2023-01-21T17:41:58.482Z,0
2023-01-21T17:42:38.993Z,0
2023-01-21T17:43:19.464Z,0
2023-01-21T17:50:04.535Z,0
2023-01-21T17:50:45.033Z,0
2023-01-21T17:51:25.613Z,0
2023-01-21T17:52:06.028Z,0
2023-01-21T17:52:46.523Z,0
2023-01-21T18:34:31.640Z,0
2023-01-21T18:35:12.054Z,0
2023-01-21T18:35:52.610Z,0
2023-01-21T18:36:33.070Z,0
2023-01-21T18:37:13.553Z,0
2023-01-21T18:37:54.035Z,0
2023-01-21T18:38:34.567Z,0
2023-01-21T18:39:15.034Z,0
2023-01-21T18:39:55.582Z,0
2023-01-21T18:40:36.048Z,0
2023-01-21T18:41:16.547Z,0
2023-01-21T18:48:01.548Z,0
2023-01-21T18:48:42.054Z,0
2023-01-21T18:49:22.521Z,0
2023-01-21T18:50:03.053Z,0
2023-01-21T18:51:24.032Z,0
2023-01-21T18:52:04.492Z,0
2023-01-21T18:52:44.984Z,0
2023-01-21T18:53:25.528Z,0
2023-01-21T18:54:06.001Z,0
2023-01-21T18:54:46.504Z,0
2023-01-21T19:01:31.507Z,0
2023-01-21T19:02:12.050Z,0
2023-01-21T19:02:52.428Z,0
2023-01-21T19:03:32.943Z,0
2023-01-21T19:04:13.441Z,0
2023-01-21T19:04:53.958Z,0
2023-01-21T19:05:34.487Z,0
2023-01-21T19:06:14.968Z,0
2023-01-21T19:06:55.489Z,0
2023-01-21T19:07:35.997Z,0
2023-01-21T19:15:01.561Z,0
2023-01-21T19:15:42.084Z,0
2023-01-21T19:16:22.596Z,0
2023-01-21T19:17:03.024Z,0
2023-01-21T19:17:43.531Z,0
2023-01-21T19:18:24.038Z,0
2023-01-21T19:19:05.197Z,0
2023-01-21T19:19:45.076Z,0
2023-01-21T19:20:25.568Z,0
2023-01-21T19:21:06.133Z,0
2023-01-21T19:21:46.601Z,0
2023-01-21T19:28:31.632Z,0
2023-01-21T19:29:12.183Z,0
2023-01-21T19:29:52.701Z,0
2023-01-21T19:30:33.188Z,0
2023-01-21T19:31:13.718Z,0
2023-01-21T19:31:54.199Z,0
2023-01-21T19:32:34.663Z,0
2023-01-21T19:33:15.137Z,0
2023-01-21T19:33:55.641Z,0
2023-01-21T19:34:36.136Z,0
2023-01-21T19:35:16.630Z,0
2023-01-21T19:42:08.200Z,0
2023-01-21T19:42:42.154Z,0
2023-01-21T19:43:22.683Z,0
2023-01-21T19:44:03.184Z,0
2023-01-21T19:44:43.707Z,0
2023-01-21T19:45:24.192Z,0
2023-01-21T19:46:45.199Z,0
2023-01-21T19:47:25.664Z,0
2023-01-21T19:48:06.187Z,0
2023-01-21T19:55:31.661Z,0
2023-01-21T19:56:12.165Z,0
2023-01-21T19:56:52.671Z,0
2023-01-21T19:57:33.166Z,0
2023-01-21T19:58:13.714Z,0
2023-01-21T19:58:54.175Z,0
2023-01-21T19:59:34.714Z,0
2023-01-21T20:00:15.580Z,0
2023-01-21T20:00:55.764Z,0
2023-01-21T20:01:36.241Z,0
2023-01-21T20:02:16.783Z,0
2023-01-21T20:09:01.801Z,0
2023-01-21T20:09:42.304Z,0
2023-01-21T20:10:22.768Z,0
2023-01-21T20:11:03.316Z,0
2023-01-21T20:11:43.798Z,0
2023-01-21T20:12:24.271Z,0
2023-01-21T20:13:04.767Z,0
2023-01-21T20:14:25.759Z,0
2023-01-21T20:15:06.239Z,0
2023-01-21T20:22:31.713Z,0
2023-01-21T20:23:12.202Z,0
2023-01-21T20:23:52.673Z,0
2023-01-21T20:24:33.182Z,0
2023-01-21T20:25:13.717Z,0